createdAt,value
2016-09-10T20:54:51.551Z,1014.16
2016-09-10T20:55:52.536Z,1014.19
2016-09-10T20:56:53.180Z,1014.17
2016-09-10T20:57:53.921Z,1014.19
2016-09-10T20:58:54.576Z,1014.2
2016-09-10T20:59:55.388Z,1014.19
2016-09-10T21:00:56.425Z,1014.21
2016-09-10T21:01:57.088Z,1014.25
2016-09-10T21:02:57.945Z,1014.23
2016-09-10T21:03:58.595Z,1014.26
2016-09-10T21:04:59.307Z,1014.24
2016-09-10T21:06:00.004Z,1014.24
2016-09-10T21:07:00.689Z,1014.22
2016-09-10T21:08:01.332Z,1014.23
2016-09-10T21:09:01.967Z,1014.23
2016-09-10T21:10:02.648Z,1014.25
2016-09-10T21:11:03.291Z,1014.22
2016-09-10T21:12:03.939Z,1014.22
2016-09-10T21:13:04.576Z,1014.24
2016-09-10T21:14:05.235Z,1014.23
2016-09-10T21:15:05.867Z,1014.24
2016-09-10T21:16:06.502Z,1014.22
2016-09-10T21:17:07.140Z,1014.23
2016-09-10T21:18:07.853Z,1014.17
2016-09-10T21:19:08.612Z,1014.23
2016-09-10T21:20:09.266Z,1014.2
2016-09-10T21:21:09.947Z,1014.26
2016-09-10T21:22:10.610Z,1014.19
2016-09-10T21:23:11.270Z,1014.25
2016-09-10T21:24:11.929Z,1014.24
2016-09-10T21:25:12.577Z,1014.22
2016-09-10T21:26:13.219Z,1014.25
2016-09-10T21:27:13.857Z,1014.24
2016-09-10T21:28:14.489Z,1014.23
2016-09-10T21:29:15.134Z,1014.22
2016-09-10T21:30:15.806Z,1014.23
2016-09-10T21:31:16.457Z,1014.22
2016-09-10T21:32:17.125Z,1014.2
2016-09-10T21:33:17.821Z,1014.18
2016-09-10T21:34:18.472Z,1014.19
2016-09-10T21:35:19.142Z,1014.21
2016-09-10T21:36:19.790Z,1014.22
2016-09-10T21:37:20.476Z,1014.21
2016-09-10T21:38:21.133Z,1014.2
2016-09-10T21:39:21.807Z,1014.21
2016-09-10T21:40:22.461Z,1014.22
2016-09-10T21:41:23.100Z,1014.23
2016-09-10T21:42:23.745Z,1014.25
2016-09-10T21:43:24.453Z,1014.22
2016-09-10T21:44:25.118Z,1014.26
2016-09-10T21:45:25.767Z,1014.26
2016-09-10T21:46:26.415Z,1014.26
2016-09-10T21:47:27.061Z,1014.22
2016-09-10T21:48:27.790Z,1014.25
2016-09-10T21:49:28.442Z,1014.25
2016-09-10T21:50:29.102Z,1014.22
2016-09-10T21:51:29.756Z,1014.18
2016-09-10T21:52:30.400Z,1014.23
2016-09-10T21:53:31.054Z,1014.23
2016-09-10T21:54:31.737Z,1014.24
2016-09-10T21:55:32.388Z,1014.21
2016-09-10T21:56:33.021Z,1014.2
2016-09-10T21:57:33.692Z,1014.18
2016-09-10T21:58:34.326Z,1014.22
2016-09-10T21:59:34.998Z,1014.18
2016-09-10T22:00:35.650Z,1014.15
2016-09-10T22:01:36.291Z,1014.19
2016-09-10T22:02:36.927Z,1014.13
2016-09-10T22:03:37.583Z,1014.15
2016-09-10T22:04:38.249Z,1014.12
2016-09-10T22:05:38.881Z,1014.16
2016-09-10T22:06:39.552Z,1014.16
2016-09-10T22:07:40.325Z,1014.17
2016-09-10T22:08:40.961Z,1014.15
2016-09-10T22:09:41.644Z,1014.11
2016-09-10T22:10:42.304Z,1014.18
2016-09-10T22:11:42.946Z,1014.16
2016-09-10T22:12:43.591Z,1014.18
2016-09-10T22:13:44.213Z,1014.15
2016-09-10T22:14:44.854Z,1014.17
2016-09-10T22:15:45.536Z,1014.22
2016-09-10T22:16:46.183Z,1014.23
2016-09-10T22:17:46.850Z,1014.22
2016-09-10T22:18:47.493Z,1014.17
2016-09-10T22:19:48.142Z,1014.11
2016-09-10T22:20:48.804Z,1014.05
2016-09-10T22:21:49.457Z,1014.09
2016-09-10T22:22:50.097Z,1014.08
2016-09-10T22:23:50.726Z,1014.08
2016-09-10T22:24:51.352Z,1014.09
2016-09-10T22:25:51.985Z,1014.09
2016-09-10T22:26:52.638Z,1014.1
2016-09-10T22:27:53.286Z,1014.1
2016-09-10T22:28:53.996Z,1014.1
2016-09-10T22:29:54.638Z,1014.05
2016-09-10T22:30:55.283Z,1014.09
2016-09-10T22:31:55.929Z,1014.08
2016-09-10T22:32:56.578Z,1014.03
2016-09-10T22:33:57.230Z,1014.03
2016-09-10T22:34:57.908Z,1014.06
2016-09-10T22:35:58.543Z,1014.07
2016-09-10T22:36:59.183Z,1014.06
2016-09-10T22:37:59.841Z,1014.07
2016-09-10T22:39:00.506Z,1014.07
2016-09-10T22:40:01.149Z,1014.05
2016-09-10T22:41:01.807Z,1014.02
2016-09-10T22:42:02.524Z,1014.05
2016-09-10T22:43:03.176Z,1014.04
2016-09-10T22:44:03.808Z,1014.01
2016-09-10T22:45:04.473Z,1014.01
2016-09-10T22:46:05.113Z,1014.01
2016-09-10T22:47:05.771Z,1014.03
2016-09-10T22:48:06.414Z,1014.01
2016-09-10T22:49:07.057Z,1014.02
2016-09-10T22:50:08.847Z,1013.96
2016-09-10T22:51:09.333Z,1013.97
2016-09-10T22:52:10.004Z,1013.97
2016-09-10T22:53:10.731Z,1013.95
2016-09-10T22:54:11.517Z,1013.96
2016-09-10T22:55:12.129Z,1013.95
2016-09-10T22:56:12.825Z,1013.95
2016-09-10T22:57:13.708Z,1013.96
2016-09-10T22:58:14.910Z,1013.98
2016-09-10T22:59:15.744Z,1014
2016-09-10T23:00:16.455Z,1013.97
2016-09-10T23:01:17.110Z,1013.96
2016-09-10T23:02:17.791Z,1013.97
2016-09-10T23:03:18.423Z,1013.98
2016-09-10T23:04:19.086Z,1013.93
2016-09-10T23:05:19.806Z,1013.97
2016-09-10T23:06:20.555Z,1013.95
2016-09-10T23:07:21.234Z,1013.97
2016-09-10T23:08:21.903Z,1013.96
2016-09-10T23:09:22.573Z,1013.98
2016-09-10T23:10:23.233Z,1013.99
2016-09-10T23:11:23.899Z,1013.95
2016-09-10T23:12:24.619Z,1013.95
2016-09-10T23:13:25.276Z,1013.99
2016-09-10T23:14:25.971Z,1014.01
2016-09-10T23:15:26.676Z,1013.97
2016-09-10T23:16:27.315Z,1013.98
2016-09-10T23:17:27.978Z,1013.96
2016-09-10T23:18:28.963Z,1013.99
2016-09-10T23:19:35.237Z,1013.97
2016-09-10T23:20:35.915Z,1013.95
2016-09-10T23:21:36.584Z,1013.95
2016-09-10T23:22:37.287Z,1013.98
2016-09-10T23:23:37.923Z,1013.98
2016-09-10T23:24:38.578Z,1013.97
2016-09-10T23:25:39.366Z,1013.95
2016-09-10T23:26:39.966Z,1013.96
2016-09-10T23:27:40.631Z,1013.96
2016-09-10T23:28:41.421Z,1013.96
2016-09-10T23:29:42.068Z,1013.96
2016-09-10T23:30:42.746Z,1013.99
2016-09-10T23:31:43.400Z,1013.97
2016-09-10T23:32:44.054Z,1013.97
2016-09-10T23:33:44.697Z,1013.99
2016-09-10T23:34:45.367Z,1013.99
2016-09-10T23:35:46.067Z,1013.99
2016-09-10T23:36:46.716Z,1013.98
2016-09-10T23:37:47.416Z,1014
2016-09-10T23:38:48.065Z,1013.98
2016-09-10T23:39:48.698Z,1014
2016-09-10T23:40:49.389Z,1014
2016-09-10T23:41:50.023Z,1013.98
2016-09-10T23:42:50.659Z,1014.04
2016-09-10T23:43:51.309Z,1014.02
2016-09-10T23:44:51.981Z,1014.02
2016-09-10T23:45:52.925Z,1014.02
2016-09-10T23:46:53.604Z,1014.02
2016-09-10T23:47:54.248Z,1014.01
2016-09-10T23:48:54.900Z,1014.04
2016-09-10T23:49:55.545Z,1014.02
2016-09-10T23:50:56.305Z,1014.08
2016-09-10T23:51:57.253Z,1014.02
2016-09-10T23:52:57.958Z,1014.01
2016-09-10T23:53:58.602Z,1014.06
2016-09-10T23:54:59.240Z,1014.04
2016-09-10T23:55:59.895Z,1014.04
2016-09-10T23:57:00.803Z,1014.03
2016-09-10T23:58:01.397Z,1014.08
2016-09-10T23:59:02.040Z,1014.07
